createdAt,value
2023-08-24T00:00:08.352Z,59.65
2023-08-24T00:01:08.349Z,59.68
2023-08-24T00:02:08.330Z,59.73
2023-08-24T00:03:08.333Z,59.65
2023-08-24T00:04:08.300Z,59.56
2023-08-24T00:05:08.300Z,59.52
2023-08-24T00:06:08.278Z,59.76
2023-08-24T00:07:08.268Z,59.59
2023-08-24T00:08:08.248Z,59.42
2023-08-24T00:09:08.239Z,60.22
2023-08-24T00:10:08.220Z,60.29
2023-08-24T00:11:08.227Z,59.78
2023-08-24T00:12:08.217Z,59.71
2023-08-24T00:13:08.194Z,59.72
2023-08-24T00:14:08.166Z,60.32
2023-08-24T00:15:08.169Z,60.29
2023-08-24T00:16:08.214Z,60.23
2023-08-24T00:17:08.146Z,60.18
2023-08-24T00:18:08.183Z,60.38
2023-08-24T00:19:08.112Z,60.38
2023-08-24T00:20:08.093Z,60.17
2023-08-24T00:21:08.089Z,59.58
2023-08-24T00:22:08.073Z,59.71
2023-08-24T00:23:08.056Z,59.75
2023-08-24T00:24:08.063Z,60.15
2023-08-24T00:25:08.049Z,59.91
2023-08-24T00:26:08.018Z,59.90
2023-08-24T00:27:08.003Z,59.65
2023-08-24T00:28:07.984Z,59.94
2023-08-24T00:29:07.984Z,59.95
2023-08-24T00:30:08.017Z,59.86
2023-08-24T00:31:08.044Z,59.82
2023-08-24T00:32:07.936Z,59.78
2023-08-24T00:33:07.987Z,59.89
2023-08-24T00:34:07.933Z,59.74
2023-08-24T00:35:07.955Z,60.14
2023-08-24T00:36:07.978Z,60.66
2023-08-24T00:37:07.898Z,60.39
2023-08-24T00:38:07.906Z,60.50
2023-08-24T00:39:07.867Z,60.45
2023-08-24T00:40:07.872Z,60.24
2023-08-24T00:41:07.861Z,60.54
2023-08-24T00:42:07.825Z,60.27
2023-08-24T00:43:07.806Z,60.78
2023-08-24T00:44:07.796Z,61.55
2023-08-24T00:45:07.768Z,60.46
2023-08-24T00:46:07.780Z,60.48
2023-08-24T00:47:07.776Z,59.91
2023-08-24T00:48:07.788Z,60.21
2023-08-24T00:49:07.761Z,59.86
2023-08-24T00:50:07.703Z,60.51
2023-08-24T00:51:07.688Z,60.37
2023-08-24T00:52:07.689Z,60.39
2023-08-24T00:53:07.662Z,60.28
2023-08-24T00:54:07.677Z,60.26
2023-08-24T00:55:07.659Z,60.30
2023-08-24T00:56:07.615Z,60.66
2023-08-24T00:57:07.625Z,60.27
2023-08-24T00:58:07.594Z,60.23
2023-08-24T00:59:07.592Z,60.31
2023-08-24T01:00:07.579Z,60.49
2023-08-24T01:01:07.628Z,61.05
2023-08-24T01:02:07.605Z,60.72
2023-08-24T01:03:07.591Z,60.69
2023-08-24T01:04:07.533Z,60.78
2023-08-24T01:05:07.527Z,60.23
2023-08-24T01:06:07.497Z,60.28
2023-08-24T01:07:07.482Z,60.19
2023-08-24T01:08:07.468Z,60.10
2023-08-24T01:09:07.473Z,60.34
2023-08-24T01:10:07.475Z,60.24
2023-08-24T01:11:07.435Z,60.31
2023-08-24T01:12:07.408Z,60.79
2023-08-24T01:13:07.404Z,60.90
2023-08-24T01:14:07.384Z,60.82
2023-08-24T01:15:07.394Z,60.71
2023-08-24T01:16:07.356Z,60.61
2023-08-24T01:17:07.368Z,60.66
2023-08-24T01:18:07.388Z,60.69
2023-08-24T01:19:07.315Z,60.74
2023-08-24T01:20:07.378Z,60.72
2023-08-24T01:21:07.315Z,60.66
2023-08-24T01:22:07.275Z,60.97
2023-08-24T01:23:07.266Z,61.13
2023-08-24T01:24:07.286Z,61.23
2023-08-24T01:25:07.302Z,60.96
2023-08-24T01:26:07.226Z,61.14
2023-08-24T01:27:07.221Z,61.07
2023-08-24T01:28:07.217Z,61.07
2023-08-24T01:29:07.189Z,61.25
2023-08-24T01:30:07.177Z,61.54
2023-08-24T01:31:07.214Z,61.68
2023-08-24T01:32:07.142Z,61.60
2023-08-24T01:33:07.179Z,61.50
2023-08-24T01:34:07.125Z,61.23
2023-08-24T01:35:07.125Z,61.41
2023-08-24T01:36:07.109Z,61.13
2023-08-24T01:37:07.090Z,61.31
2023-08-24T01:38:07.064Z,61.21
2023-08-24T01:39:07.062Z,61.27
2023-08-24T01:40:07.049Z,61.34
2023-08-24T01:41:07.046Z,61.24
2023-08-24T01:42:07.030Z,61.27
2023-08-24T01:43:07.011Z,61.38
2023-08-24T01:44:07.003Z,61.56
2023-08-24T01:45:06.996Z,61.70
2023-08-24T01:46:07.044Z,61.99
2023-08-24T01:47:06.962Z,61.83
2023-08-24T01:48:07.039Z,61.86
2023-08-24T01:49:06.943Z,61.81
2023-08-24T01:50:06.936Z,61.59
2023-08-24T01:51:06.917Z,61.75
2023-08-24T01:52:06.904Z,61.91
2023-08-24T01:53:06.879Z,61.79
2023-08-24T01:54:06.862Z,61.83
2023-08-24T01:55:06.869Z,61.94
2023-08-24T01:56:06.845Z,61.96
2023-08-24T01:57:06.876Z,61.99
2023-08-24T01:58:06.817Z,61.84
2023-08-24T01:59:06.804Z,61.80
2023-08-24T02:00:06.791Z,61.76
2023-08-24T02:01:06.856Z,61.59
2023-08-24T02:02:06.757Z,61.76
2023-08-24T02:03:06.834Z,61.55
2023-08-24T02:04:06.742Z,62.01
2023-08-24T02:05:06.721Z,62.12
2023-08-24T02:06:06.721Z,62.31
2023-08-24T02:07:06.697Z,62.56
2023-08-24T02:08:06.679Z,62.47
2023-08-24T02:09:06.692Z,62.46
2023-08-24T02:10:06.688Z,62.63
2023-08-24T02:11:06.647Z,62.57
2023-08-24T02:12:06.627Z,62.78
2023-08-24T02:13:06.631Z,62.70
2023-08-24T02:14:06.609Z,62.93
2023-08-24T02:15:06.596Z,62.99
2023-08-24T02:16:06.773Z,63.10
2023-08-24T02:17:06.561Z,63.31
2023-08-24T02:18:06.575Z,63.47
2023-08-24T02:19:06.553Z,63.33
2023-08-24T02:20:06.532Z,63.34
2023-08-24T02:21:06.506Z,63.61
2023-08-24T02:22:06.516Z,63.79
2023-08-24T02:23:06.484Z,63.48
2023-08-24T02:24:06.490Z,63.50
2023-08-24T02:25:06.465Z,63.64
2023-08-24T02:26:06.472Z,63.47
2023-08-24T02:27:06.439Z,63.61
2023-08-24T02:28:06.418Z,63.40
2023-08-24T02:29:06.495Z,63.41
2023-08-24T02:30:06.385Z,63.84
2023-08-24T02:31:06.450Z,63.80
2023-08-24T02:32:06.409Z,63.89
2023-08-24T02:33:06.378Z,63.86
2023-08-24T02:34:06.344Z,63.82
2023-08-24T02:35:06.340Z,64.10
2023-08-24T02:36:06.318Z,64.00
2023-08-24T02:37:06.328Z,64.06
2023-08-24T02:38:06.286Z,64.26
2023-08-24T02:39:06.303Z,64.20
2023-08-24T02:40:06.282Z,64.04
2023-08-24T02:41:06.266Z,64.26
2023-08-24T02:42:06.250Z,64.35
2023-08-24T02:43:06.216Z,64.23
2023-08-24T02:44:06.219Z,64.19
2023-08-24T02:45:06.185Z,64.61
2023-08-24T02:46:06.196Z,64.71
2023-08-24T02:47:06.174Z,64.59
2023-08-24T02:48:06.254Z,64.43
2023-08-24T02:49:06.130Z,64.48
2023-08-24T02:50:06.160Z,64.58
2023-08-24T02:51:06.251Z,64.67
2023-08-24T02:52:06.091Z,64.95
2023-08-24T02:53:06.100Z,64.93
2023-08-24T02:54:06.052Z,65.09
2023-08-24T02:55:06.032Z,65.01
2023-08-24T02:56:06.039Z,64.87
2023-08-24T02:57:06.011Z,64.88
2023-08-24T02:58:06.008Z,64.93
2023-08-24T02:59:05.984Z,65.04
2023-08-24T03:00:05.983Z,64.95
2023-08-24T03:01:05.988Z,65.16
2023-08-24T03:02:05.951Z,65.18
2023-08-24T03:03:05.986Z,65.12
2023-08-24T03:04:05.956Z,65.06
2023-08-24T03:05:05.911Z,65.07
2023-08-24T03:06:05.886Z,65.30
2023-08-24T03:07:05.872Z,65.23
2023-08-24T03:08:05.895Z,65.09
2023-08-24T03:09:05.855Z,65.17
2023-08-24T03:10:05.862Z,65.06
2023-08-24T03:11:05.825Z,65.19
2023-08-24T03:12:05.814Z,65.47
2023-08-24T03:13:05.794Z,65.53
2023-08-24T03:14:05.789Z,65.44
2023-08-24T03:15:05.774Z,65.25
2023-08-24T03:16:05.772Z,65.57
2023-08-24T03:17:05.805Z,65.59
2023-08-24T03:18:05.741Z,65.42
2023-08-24T03:19:05.726Z,65.63
2023-08-24T03:20:05.720Z,65.76
2023-08-24T03:21:05.716Z,65.67
2023-08-24T03:22:05.688Z,65.66
2023-08-24T03:23:05.677Z,65.83
2023-08-24T03:24:05.654Z,65.75
2023-08-24T03:25:05.642Z,66.02
2023-08-24T03:26:05.634Z,65.70
2023-08-24T03:27:05.622Z,65.94
2023-08-24T03:28:05.599Z,65.80
2023-08-24T03:29:05.598Z,65.81
2023-08-24T03:30:05.591Z,65.69
2023-08-24T03:31:05.625Z,65.89
2023-08-24T03:32:05.545Z,65.98
2023-08-24T03:33:05.618Z,66.22
2023-08-24T03:34:05.524Z,66.09
2023-08-24T03:35:05.515Z,66.21
2023-08-24T03:36:05.510Z,66.28
2023-08-24T03:37:05.492Z,66.19
2023-08-24T03:38:05.466Z,66.50
2023-08-24T03:39:05.471Z,66.44
2023-08-24T03:40:05.438Z,66.43
2023-08-24T03:41:05.439Z,66.44
2023-08-24T03:42:05.407Z,66.34
2023-08-24T03:43:05.404Z,66.15
2023-08-24T03:44:05.384Z,66.25
2023-08-24T03:45:05.371Z,66.24
2023-08-24T03:46:05.580Z,66.11
2023-08-24T03:47:11.371Z,66.36
2023-08-24T03:48:05.370Z,66.35
2023-08-24T03:49:06.984Z,66.34
2023-08-24T03:50:05.379Z,66.40
2023-08-24T03:51:05.288Z,66.36
2023-08-24T03:52:05.280Z,66.19
2023-08-24T03:53:05.272Z,66.22
2023-08-24T03:54:05.276Z,66.52
2023-08-24T03:55:05.267Z,66.34
2023-08-24T03:56:05.215Z,66.51
2023-08-24T03:57:05.203Z,66.55
2023-08-24T03:58:05.231Z,66.40
2023-08-24T03:59:05.181Z,66.57
2023-08-24T04:00:05.196Z,66.64
2023-08-24T04:01:05.172Z,66.63
2023-08-24T04:02:05.144Z,66.56
2023-08-24T04:03:05.190Z,66.41
2023-08-24T04:04:05.204Z,66.39
2023-08-24T04:05:05.144Z,66.37
2023-08-24T04:06:05.106Z,66.39
2023-08-24T04:07:05.084Z,66.48
2023-08-24T04:08:05.089Z,66.33
2023-08-24T04:09:05.161Z,66.39
2023-08-24T04:10:05.076Z,66.41
2023-08-24T04:11:05.049Z,66.41
2023-08-24T04:12:05.712Z,66.41
2023-08-24T04:13:05.161Z,66.29
2023-08-24T04:14:05.080Z,66.41
2023-08-24T04:15:05.012Z,66.48
2023-08-24T04:16:05.180Z,66.33
2023-08-24T04:17:04.983Z,66.39
2023-08-24T04:18:05.055Z,66.43
2023-08-24T04:19:04.942Z,66.32
2023-08-24T04:20:04.941Z,66.43
2023-08-24T04:21:04.973Z,66.42
2023-08-24T04:22:04.908Z,66.39
2023-08-24T04:23:07.498Z,66.45
2023-08-24T04:24:04.912Z,66.52
2023-08-24T04:25:04.891Z,66.74
2023-08-24T04:26:04.846Z,66.82
2023-08-24T04:27:04.821Z,66.83
2023-08-24T04:28:04.844Z,66.74
2023-08-24T04:29:04.825Z,66.89
2023-08-24T04:30:04.792Z,66.89
2023-08-24T04:31:04.855Z,67.12
2023-08-24T04:32:04.813Z,66.98
2023-08-24T04:33:04.783Z,67.11
2023-08-24T04:34:04.747Z,66.96
2023-08-24T04:35:04.729Z,66.82
2023-08-24T04:36:04.737Z,67.04
2023-08-24T04:37:04.718Z,67.09
2023-08-24T04:38:04.704Z,67.33
2023-08-24T04:39:04.755Z,67.27
2023-08-24T04:40:04.648Z,67.32
2023-08-24T04:41:04.657Z,67.34
2023-08-24T04:42:04.664Z,67.27
2023-08-24T04:43:04.622Z,67.10
2023-08-24T04:44:04.613Z,67.07
2023-08-24T04:45:04.684Z,66.87
2023-08-24T04:46:04.617Z,66.92
2023-08-24T04:47:04.566Z,66.88
2023-08-24T04:48:04.714Z,66.89
2023-08-24T04:49:04.705Z,66.85
2023-08-24T04:50:04.704Z,66.87
2023-08-24T04:51:04.538Z,69.22
2023-08-24T04:52:04.563Z,72.14
2023-08-24T04:53:04.481Z,73.46
2023-08-24T04:54:04.477Z,72.98
2023-08-24T04:55:04.486Z,72.26
2023-08-24T04:56:04.454Z,72.03
2023-08-24T04:57:04.480Z,71.86
2023-08-24T04:58:04.447Z,71.59
2023-08-24T04:59:04.434Z,72.40
2023-08-24T05:00:04.392Z,71.76
2023-08-24T05:01:04.420Z,71.65
2023-08-24T05:02:05.061Z,71.56
2023-08-24T05:03:04.406Z,71.82
2023-08-24T05:04:04.346Z,71.80
2023-08-24T05:05:04.332Z,71.63
2023-08-24T05:06:04.331Z,71.67
2023-08-24T05:07:04.334Z,71.94
2023-08-24T05:08:04.290Z,72.05
2023-08-24T05:09:04.342Z,72.22
2023-08-24T05:10:04.261Z,71.94
2023-08-24T05:11:04.254Z,72.01
2023-08-24T05:12:04.262Z,71.97
2023-08-24T05:13:04.274Z,71.98
2023-08-24T05:14:04.259Z,72.01
2023-08-24T05:15:04.207Z,71.66
2023-08-24T05:16:04.233Z,72.08
2023-08-24T05:17:04.212Z,71.80
2023-08-24T05:18:04.199Z,72.02
2023-08-24T05:19:04.152Z,71.65
2023-08-24T05:20:04.132Z,71.64
2023-08-24T05:21:04.110Z,72.09
2023-08-24T05:22:04.100Z,72.58
2023-08-24T05:23:04.114Z,72.43
2023-08-24T05:24:04.111Z,72.14
2023-08-24T05:25:04.197Z,72.97
2023-08-24T05:26:04.059Z,72.24
2023-08-24T05:27:04.036Z,72.12
2023-08-24T05:28:04.026Z,72.14
2023-08-24T05:29:04.004Z,72.06
2023-08-24T05:30:04.037Z,72.51
2023-08-24T05:31:05.736Z,73.13
2023-08-24T05:32:04.194Z,73.43
2023-08-24T05:33:04.146Z,73.46
2023-08-24T05:34:04.043Z,73.23
2023-08-24T05:35:03.994Z,73.22
2023-08-24T05:36:03.954Z,73.37
2023-08-24T05:37:03.942Z,73.53
2023-08-24T05:38:03.990Z,73.72
2023-08-24T05:39:06.518Z,73.19
2023-08-24T05:40:05.285Z,73.14
2023-08-24T05:41:03.869Z,73.04
2023-08-24T05:42:03.863Z,73.00
2023-08-24T05:43:03.871Z,72.75
2023-08-24T05:44:03.856Z,72.64
2023-08-24T05:45:03.808Z,72.02
2023-08-24T05:46:03.840Z,72.16
2023-08-24T05:47:03.784Z,72.24
2023-08-24T05:48:03.818Z,72.32
2023-08-24T05:49:03.755Z,72.57
2023-08-24T05:50:03.736Z,72.83
2023-08-24T05:51:03.729Z,72.42
2023-08-24T05:52:03.706Z,71.54
2023-08-24T05:53:03.703Z,71.84
2023-08-24T05:54:03.710Z,71.85
2023-08-24T05:55:03.729Z,72.11
2023-08-24T05:56:03.660Z,71.96
2023-08-24T05:57:03.652Z,71.87
2023-08-24T05:58:03.640Z,72.06
2023-08-24T05:59:06.176Z,71.90
2023-08-24T06:00:03.621Z,71.47
2023-08-24T06:01:03.602Z,71.56
2023-08-24T06:02:03.629Z,71.20
2023-08-24T06:03:03.582Z,71.45
2023-08-24T06:04:03.634Z,71.44
2023-08-24T06:05:03.565Z,71.40
2023-08-24T06:06:03.536Z,71.68
2023-08-24T06:07:03.524Z,71.38
2023-08-24T06:08:03.520Z,71.18
2023-08-24T06:09:03.495Z,71.32
2023-08-24T06:10:03.499Z,71.60
2023-08-24T06:11:03.490Z,71.71
2023-08-24T06:12:03.466Z,71.26
2023-08-24T06:13:03.458Z,70.84
2023-08-24T06:14:03.436Z,71.11
2023-08-24T06:15:03.441Z,71.38
2023-08-24T06:16:03.442Z,71.15
2023-08-24T06:17:03.397Z,71.19
2023-08-24T06:18:03.412Z,71.34
2023-08-24T06:19:03.393Z,71.19
2023-08-24T06:20:03.383Z,71.27
2023-08-24T06:21:03.375Z,70.43
2023-08-24T06:22:03.330Z,70.83
2023-08-24T06:23:03.334Z,70.93
2023-08-24T06:24:03.338Z,70.74
2023-08-24T06:25:03.305Z,70.88
2023-08-24T06:26:03.294Z,70.92
2023-08-24T06:27:03.269Z,71.08
2023-08-24T06:28:03.271Z,71.19
2023-08-24T06:29:03.242Z,71.03
2023-08-24T06:30:03.259Z,71.08
2023-08-24T06:31:03.226Z,70.54
2023-08-24T06:32:03.230Z,70.44
2023-08-24T06:33:03.226Z,70.74
2023-08-24T06:34:03.184Z,70.96
2023-08-24T06:35:03.543Z,71.08
2023-08-24T06:36:03.346Z,71.01
2023-08-24T06:37:03.237Z,70.67
2023-08-24T06:38:03.246Z,70.35
2023-08-24T06:39:03.231Z,69.98
2023-08-24T06:40:03.584Z,70.35
2023-08-24T06:41:03.103Z,69.81
2023-08-24T06:42:03.108Z,69.65
2023-08-24T06:43:03.146Z,69.77
2023-08-24T06:44:03.086Z,70.18
2023-08-24T06:45:03.059Z,70.31
2023-08-24T06:46:03.140Z,70.43
2023-08-24T06:47:05.573Z,70.02
2023-08-24T06:48:03.020Z,69.98
2023-08-24T06:49:03.009Z,70.07
2023-08-24T06:50:03.034Z,69.98
2023-08-24T06:51:02.998Z,69.91
2023-08-24T06:52:02.997Z,69.85
2023-08-24T06:53:03.175Z,70.10
2023-08-24T06:54:02.945Z,69.72
2023-08-24T06:55:02.938Z,69.40
2023-08-24T06:56:02.924Z,69.25
2023-08-24T06:57:02.939Z,69.56
2023-08-24T06:58:03.010Z,69.41
2023-08-24T06:59:09.649Z,69.37
2023-08-24T07:00:02.979Z,69.36
2023-08-24T07:01:03.148Z,69.40
2023-08-24T07:02:02.877Z,69.45
2023-08-24T07:03:02.856Z,69.17
2023-08-24T07:04:02.815Z,69.11
2023-08-24T07:05:02.810Z,69.03
2023-08-24T07:06:02.815Z,69.63
2023-08-24T07:07:02.805Z,69.31
2023-08-24T07:08:02.751Z,68.93
2023-08-24T07:09:02.734Z,69.02
2023-08-24T07:10:02.739Z,69.29
2023-08-24T07:11:02.722Z,69.17
2023-08-24T07:12:02.709Z,69.11
2023-08-24T07:13:02.713Z,69.42
2023-08-24T07:14:02.711Z,68.99
2023-08-24T07:15:02.658Z,68.77
2023-08-24T07:16:02.752Z,69.11
2023-08-24T07:17:02.628Z,68.99
2023-08-24T07:18:02.694Z,69.09
2023-08-24T07:19:02.653Z,69.18
2023-08-24T07:20:02.612Z,69.53
2023-08-24T07:21:02.597Z,69.33
2023-08-24T07:22:02.609Z,69.14
2023-08-24T07:23:02.544Z,69.19
2023-08-24T07:24:02.548Z,69.03
2023-08-24T07:25:04.785Z,68.96
2023-08-24T07:26:02.543Z,69.36
2023-08-24T07:27:02.510Z,69.65
2023-08-24T07:28:02.520Z,69.97
2023-08-24T07:29:02.489Z,69.51
2023-08-24T07:30:02.541Z,69.18
2023-08-24T07:31:02.554Z,69.44
2023-08-24T07:32:02.569Z,70.36
2023-08-24T07:33:02.624Z,70.16
2023-08-24T07:34:02.428Z,69.80
2023-08-24T07:35:02.408Z,69.81
2023-08-24T07:36:02.448Z,70.31
2023-08-24T07:37:02.384Z,70.99
2023-08-24T07:38:02.367Z,69.80
2023-08-24T07:39:02.367Z,69.36
2023-08-24T07:40:02.338Z,69.33
2023-08-24T07:41:02.335Z,69.25
2023-08-24T07:42:02.343Z,70.40
2023-08-24T07:43:02.317Z,70.79
2023-08-24T07:44:02.309Z,69.74
2023-08-24T07:45:02.279Z,69.67
2023-08-24T07:46:02.454Z,69.77
2023-08-24T07:47:02.268Z,70.09
2023-08-24T07:48:02.385Z,70.45
2023-08-24T07:49:02.224Z,69.49
2023-08-24T07:50:02.242Z,69.41
2023-08-24T07:51:02.201Z,69.98
2023-08-24T07:52:02.202Z,70.75
2023-08-24T07:53:02.223Z,70.74
2023-08-24T07:54:02.163Z,70.81
2023-08-24T07:55:02.168Z,70.59
2023-08-24T07:56:02.151Z,70.51
2023-08-24T07:57:02.151Z,70.43
2023-08-24T07:58:02.157Z,70.68
2023-08-24T07:59:02.125Z,70.87
2023-08-24T08:00:02.092Z,71.10
2023-08-24T08:01:02.086Z,70.57
2023-08-24T08:02:02.137Z,70.12
2023-08-24T08:03:03.263Z,70.14
2023-08-24T08:04:02.079Z,69.64
2023-08-24T08:05:02.045Z,70.36
2023-08-24T08:06:02.027Z,70.05
2023-08-24T08:07:02.000Z,68.91
2023-08-24T08:08:02.015Z,68.41
2023-08-24T08:09:02.012Z,68.75
2023-08-24T08:10:01.989Z,68.20
2023-08-24T08:11:01.965Z,67.93
2023-08-24T08:12:01.936Z,68.99
2023-08-24T08:13:01.929Z,68.17
2023-08-24T08:14:01.911Z,68.29
2023-08-24T08:15:01.903Z,68.25
2023-08-24T08:16:01.964Z,67.59
2023-08-24T08:17:01.870Z,67.79
2023-08-24T08:18:01.945Z,68.12
2023-08-24T08:19:01.869Z,69.09
2023-08-24T08:20:01.849Z,68.55
2023-08-24T08:21:01.821Z,68.06
2023-08-24T08:22:01.816Z,66.93
2023-08-24T08:23:01.807Z,67.34
2023-08-24T08:24:01.810Z,67.15
2023-08-24T08:25:01.770Z,67.42
2023-08-24T08:26:01.775Z,67.74
2023-08-24T08:27:01.761Z,67.75
2023-08-24T08:28:01.735Z,67.80
2023-08-24T08:29:01.748Z,66.76
2023-08-24T08:30:01.720Z,66.58
2023-08-24T08:31:01.748Z,66.76
2023-08-24T08:32:01.879Z,66.90
2023-08-24T08:33:01.713Z,66.76
2023-08-24T08:34:01.690Z,66.38
2023-08-24T08:35:01.642Z,66.49
2023-08-24T08:36:01.642Z,67.24
2023-08-24T08:37:01.616Z,67.34
2023-08-24T08:38:01.607Z,68.14
2023-08-24T08:39:01.597Z,68.93
2023-08-24T08:40:01.643Z,68.22
2023-08-24T08:41:01.567Z,67.75
2023-08-24T08:42:01.551Z,67.95
2023-08-24T08:43:01.552Z,68.24
2023-08-24T08:44:01.531Z,67.61
2023-08-24T08:45:01.532Z,66.86
2023-08-24T08:46:01.661Z,65.74
2023-08-24T08:47:01.514Z,65.78
2023-08-24T08:48:01.505Z,66.39
2023-08-24T08:49:01.469Z,66.73
2023-08-24T08:50:01.447Z,65.94
2023-08-24T08:51:01.427Z,65.88
2023-08-24T08:52:01.418Z,65.91
2023-08-24T08:53:01.417Z,66.06
2023-08-24T08:54:01.411Z,66.24
2023-08-24T08:55:01.376Z,65.94
2023-08-24T08:56:01.371Z,66.06
2023-08-24T08:57:01.355Z,65.48
2023-08-24T08:58:01.330Z,64.99
2023-08-24T08:59:01.379Z,65.06
2023-08-24T09:00:01.310Z,65.09
2023-08-24T09:01:01.337Z,65.72
2023-08-24T09:02:01.291Z,66.32
2023-08-24T09:03:01.374Z,65.87
2023-08-24T09:04:01.301Z,66.15
2023-08-24T09:05:01.324Z,67.01
2023-08-24T09:06:01.237Z,66.98
2023-08-24T09:07:01.227Z,66.76
2023-08-24T09:08:01.221Z,66.07
2023-08-24T09:09:01.208Z,65.47
2023-08-24T09:10:01.193Z,64.79
2023-08-24T09:11:01.211Z,65.22
2023-08-24T09:12:01.168Z,65.76
2023-08-24T09:13:01.161Z,65.43
2023-08-24T09:14:01.192Z,65.17
2023-08-24T09:15:01.177Z,65.47
2023-08-24T09:16:01.187Z,65.52
2023-08-24T09:17:01.133Z,65.07
2023-08-24T09:18:01.120Z,64.99
2023-08-24T09:19:01.069Z,66.18
2023-08-24T09:20:01.096Z,66.63
2023-08-24T09:21:01.045Z,67.25
2023-08-24T09:22:01.030Z,66.72
2023-08-24T09:23:01.015Z,66.05
2023-08-24T09:24:01.021Z,66.16
2023-08-24T09:25:01.020Z,65.34
2023-08-24T09:26:01.046Z,64.84
2023-08-24T09:27:00.972Z,65.00
2023-08-24T09:28:00.946Z,64.79
2023-08-24T09:29:00.944Z,64.57
2023-08-24T09:30:00.944Z,64.00
2023-08-24T09:31:00.943Z,64.25
2023-08-24T09:32:00.915Z,64.67
2023-08-24T09:33:00.906Z,64.17
2023-08-24T09:34:00.934Z,63.83
2023-08-24T09:35:00.866Z,64.05
2023-08-24T09:36:00.848Z,64.34
2023-08-24T09:37:00.828Z,65.00
2023-08-24T09:38:00.881Z,64.79
2023-08-24T09:39:00.821Z,64.51
2023-08-24T09:40:00.793Z,63.06
2023-08-24T09:41:00.781Z,64.10
2023-08-24T09:42:00.763Z,64.30
2023-08-24T09:43:00.748Z,63.43
2023-08-24T09:44:00.738Z,64.33
2023-08-24T09:45:00.772Z,64.95
2023-08-24T09:46:00.718Z,64.22
2023-08-24T09:47:57.014Z,63.81
2023-08-24T09:48:57.882Z,64.64
2023-08-24T09:49:57.877Z,64.21
2023-08-24T09:50:57.896Z,62.46
2023-08-24T09:51:57.863Z,62.83
2023-08-24T09:52:57.857Z,62.24
2023-08-24T09:53:57.815Z,62.20
2023-08-24T09:54:57.818Z,61.99
2023-08-24T09:55:57.794Z,61.80
2023-08-24T09:56:57.774Z,61.45
2023-08-24T09:57:57.764Z,61.21
2023-08-24T09:58:57.772Z,61.39
2023-08-24T09:59:57.768Z,61.41
2023-08-24T10:00:57.712Z,61.60
2023-08-24T10:01:57.753Z,62.20
2023-08-24T10:02:57.981Z,61.94
2023-08-24T10:03:57.759Z,61.56
2023-08-24T10:04:57.714Z,62.28
2023-08-24T10:06:00.839Z,63.13
2023-08-24T10:06:57.636Z,62.49
2023-08-24T10:07:57.648Z,62.51
2023-08-24T10:08:57.616Z,62.47
2023-08-24T10:09:57.618Z,63.19
2023-08-24T10:10:57.605Z,63.00
2023-08-24T10:11:57.595Z,64.11
2023-08-24T10:12:57.558Z,65.30
2023-08-24T10:13:57.545Z,63.98
2023-08-24T10:14:57.535Z,62.24
2023-08-24T10:15:57.573Z,62.18
2023-08-24T10:16:57.518Z,61.51
2023-08-24T10:17:57.544Z,61.34
2023-08-24T10:18:57.470Z,61.69
2023-08-24T10:19:57.477Z,61.22
2023-08-24T10:20:57.487Z,61.36
2023-08-24T10:21:57.450Z,62.16
2023-08-24T10:22:57.416Z,61.17
2023-08-24T10:23:57.414Z,62.47
2023-08-24T10:24:57.400Z,62.98
2023-08-24T10:25:57.411Z,63.93
2023-08-24T10:26:57.386Z,62.50
2023-08-24T10:27:57.389Z,62.82
2023-08-24T10:28:57.364Z,62.72
2023-08-24T10:29:57.339Z,61.56
2023-08-24T10:30:57.328Z,61.15
2023-08-24T10:31:57.393Z,60.03
2023-08-24T10:32:57.453Z,58.93
2023-08-24T10:33:57.288Z,59.61
2023-08-24T10:34:57.269Z,59.11
2023-08-24T10:35:57.257Z,58.52
2023-08-24T10:36:57.276Z,59.11
2023-08-24T10:37:57.231Z,59.42
2023-08-24T10:38:57.216Z,58.88
2023-08-24T10:39:57.204Z,59.04
2023-08-24T10:40:57.188Z,59.58
2023-08-24T10:41:57.227Z,59.52
2023-08-24T10:42:57.165Z,58.81
2023-08-24T10:43:57.165Z,59.91
2023-08-24T10:44:57.167Z,61.18
2023-08-24T10:45:57.250Z,58.73
2023-08-24T10:46:57.131Z,58.73
2023-08-24T10:47:57.114Z,57.91
2023-08-24T10:48:57.101Z,58.20
2023-08-24T10:49:57.164Z,58.58
2023-08-24T10:50:57.059Z,58.83
2023-08-24T10:51:57.078Z,57.60
2023-08-24T10:52:57.026Z,58.15
2023-08-24T10:53:57.041Z,58.32
2023-08-24T10:54:57.041Z,60.30
2023-08-24T10:55:56.993Z,61.84
2023-08-24T10:56:56.984Z,59.34
2023-08-24T10:57:56.970Z,59.81
2023-08-24T10:58:56.960Z,59.30
2023-08-24T10:59:56.941Z,59.80
2023-08-24T11:00:56.994Z,58.02
2023-08-24T11:01:56.934Z,58.22
2023-08-24T11:03:00.564Z,56.79
2023-08-24T11:03:56.964Z,56.87
2023-08-24T11:04:56.903Z,57.56
2023-08-24T11:05:56.929Z,58.39
2023-08-24T11:06:56.876Z,56.50
2023-08-24T11:07:56.841Z,55.36
2023-08-24T11:08:56.840Z,55.61
2023-08-24T11:09:56.835Z,54.52
2023-08-24T11:10:56.809Z,55.14
2023-08-24T11:11:56.803Z,55.03
2023-08-24T11:12:56.778Z,55.62
2023-08-24T11:13:56.757Z,55.99
2023-08-24T11:14:56.750Z,56.48
2023-08-24T11:15:56.759Z,56.41
2023-08-24T11:16:56.735Z,57.08
2023-08-24T11:17:56.764Z,57.37
2023-08-24T11:18:56.695Z,54.64
2023-08-24T11:19:56.696Z,56.49
2023-08-24T11:20:56.685Z,55.78
2023-08-24T11:21:56.681Z,54.58
2023-08-24T11:22:56.646Z,57.34
2023-08-24T11:23:56.644Z,54.06
2023-08-24T11:24:56.616Z,55.63
2023-08-24T11:25:56.603Z,55.77
2023-08-24T11:26:56.620Z,54.96
2023-08-24T11:27:56.613Z,52.97
2023-08-24T11:28:56.576Z,54.23
2023-08-24T11:29:56.571Z,56.00
2023-08-24T11:30:56.639Z,54.11
2023-08-24T11:31:56.554Z,54.37
2023-08-24T11:32:56.530Z,55.54
2023-08-24T11:33:56.504Z,54.06
2023-08-24T11:34:56.499Z,53.26
2023-08-24T11:35:56.544Z,52.64
2023-08-24T11:36:56.453Z,52.38
2023-08-24T11:37:56.467Z,53.64
2023-08-24T11:38:56.448Z,53.70
2023-08-24T11:39:56.439Z,54.37
2023-08-24T11:40:56.399Z,54.34
2023-08-24T11:41:56.396Z,54.28
2023-08-24T11:42:56.454Z,53.94
2023-08-24T11:43:57.949Z,56.14
2023-08-24T11:44:56.373Z,55.18
2023-08-24T11:45:56.360Z,53.52
2023-08-24T11:46:56.355Z,53.68
2023-08-24T11:47:56.383Z,53.70
2023-08-24T11:48:56.309Z,54.28
2023-08-24T11:49:56.301Z,52.42
2023-08-24T11:50:56.288Z,51.72
2023-08-24T11:51:56.265Z,52.61
2023-08-24T11:52:56.269Z,54.55
2023-08-24T11:53:56.232Z,53.12
2023-08-24T11:54:56.221Z,55.25
2023-08-24T11:56:05.753Z,52.44
2023-08-24T11:56:56.203Z,53.20
2023-08-24T11:57:56.232Z,52.33
2023-08-24T11:58:56.207Z,52.44
2023-08-24T11:59:56.171Z,52.18
2023-08-24T12:00:56.177Z,52.20
2023-08-24T12:01:56.145Z,54.08
2023-08-24T12:02:56.215Z,49.71
2023-08-24T12:03:56.196Z,48.76
2023-08-24T12:04:56.099Z,50.13
2023-08-24T12:05:56.107Z,51.70
2023-08-24T12:06:56.074Z,52.90
2023-08-24T12:07:56.131Z,51.68
2023-08-24T12:08:56.065Z,50.89
2023-08-24T12:09:56.039Z,47.14
2023-08-24T12:10:56.024Z,48.49
2023-08-24T12:11:56.013Z,48.71
2023-08-24T12:12:56.003Z,46.87
2023-08-24T12:13:55.999Z,45.96
2023-08-24T12:14:55.965Z,47.18
2023-08-24T12:15:55.967Z,48.48
2023-08-24T12:16:55.968Z,47.11
2023-08-24T12:17:55.957Z,48.36
2023-08-24T12:18:55.925Z,53.89
2023-08-24T12:19:55.925Z,56.69
2023-08-24T12:20:55.906Z,51.84
2023-08-24T12:21:55.919Z,51.45
2023-08-24T12:22:55.867Z,49.23
2023-08-24T12:23:55.869Z,49.66
2023-08-24T12:24:55.849Z,55.44
2023-08-24T12:25:55.835Z,50.72
2023-08-24T12:26:55.809Z,48.04
2023-08-24T12:27:55.813Z,48.55
2023-08-24T12:28:55.848Z,50.14
2023-08-24T12:29:55.814Z,48.71
2023-08-24T12:30:55.854Z,47.80
2023-08-24T12:31:55.761Z,51.54
2023-08-24T12:32:55.983Z,48.02
2023-08-24T12:33:55.751Z,48.26
2023-08-24T12:34:55.830Z,47.45
2023-08-24T12:35:55.736Z,48.03
2023-08-24T12:36:56.381Z,49.22
2023-08-24T12:37:55.670Z,51.12
2023-08-24T12:38:55.680Z,49.16
2023-08-24T12:39:55.676Z,49.63
2023-08-24T12:40:55.656Z,50.64
2023-08-24T12:41:55.621Z,51.51
2023-08-24T12:42:55.655Z,48.68
2023-08-24T12:43:55.672Z,48.13
2023-08-24T12:44:55.597Z,48.18
2023-08-24T12:45:55.571Z,47.71
2023-08-24T12:46:55.574Z,46.87
2023-08-24T12:47:55.892Z,46.21
2023-08-24T12:48:56.961Z,46.07
2023-08-24T12:49:55.562Z,45.00
2023-08-24T12:50:55.502Z,44.86
2023-08-24T12:51:55.493Z,47.23
2023-08-24T12:52:55.473Z,48.25